createdAt,value
2022-10-11T00:01:27.371Z,12.05
2022-10-11T00:05:29.294Z,11.65
2022-10-11T00:09:31.425Z,11.40
2022-10-11T00:13:33.565Z,12.60
2022-10-11T00:17:36.287Z,12.27
2022-10-11T00:21:38.259Z,11.15
2022-10-11T00:25:40.282Z,11.90
2022-10-11T00:29:41.954Z,13.40
2022-10-11T00:33:43.975Z,11.43
2022-10-11T00:37:45.962Z,11.60
2022-10-11T00:41:49.198Z,12.00
2022-10-11T00:45:57.074Z,11.93
2022-10-11T00:50:01.609Z,11.70
2022-10-11T00:54:04.318Z,11.15
2022-10-11T00:58:06.648Z,11.52
2022-10-11T01:02:09.953Z,12.00
2022-10-11T01:06:11.900Z,12.93
2022-10-11T01:10:13.867Z,12.70
2022-10-11T01:14:34.459Z,12.40
2022-10-11T01:18:49.729Z,12.57
2022-10-11T01:23:29.305Z,13.07
2022-10-11T01:28:15.427Z,13.05
2022-10-11T01:32:30.397Z,13.00
2022-10-11T01:36:40.227Z,12.90
2022-10-11T01:40:50.873Z,13.57
2022-10-11T01:44:54.472Z,14.23
2022-10-11T01:49:00.307Z,13.48
2022-10-11T01:53:16.243Z,12.80
2022-10-11T01:57:46.088Z,13.48
2022-10-11T02:01:57.912Z,13.45
2022-10-11T02:06:12.943Z,14.07
2022-10-11T02:10:24.651Z,12.82
2022-10-11T02:14:31.565Z,13.00
2022-10-11T02:18:39.225Z,11.77
2022-10-11T02:22:44.952Z,13.83
2022-10-11T02:26:52.959Z,13.80
2022-10-11T02:30:56.712Z,13.35
2022-10-11T02:35:00.350Z,13.48
2022-10-11T02:39:12.360Z,13.35
2022-10-11T02:43:23.971Z,13.40
2022-10-11T02:47:31.003Z,13.57
2022-10-11T02:51:33.655Z,13.80
2022-10-11T02:55:36.148Z,13.43
2022-10-11T02:59:37.839Z,14.75
2022-10-11T03:03:40.097Z,13.32
2022-10-11T03:07:42.300Z,12.93
2022-10-11T03:11:44.135Z,14.43
2022-10-11T03:16:07.405Z,14.85
2022-10-11T03:20:10.066Z,13.82
2022-10-11T03:24:11.685Z,13.15
2022-10-11T03:28:13.635Z,15.05
2022-10-11T03:32:15.314Z,13.18
2022-10-11T03:36:17.576Z,14.07
2022-10-11T03:40:19.497Z,13.18
2022-10-11T03:44:21.321Z,13.60
2022-10-11T03:48:23.052Z,13.23
2022-10-11T03:52:24.994Z,13.25
2022-10-11T03:56:26.591Z,13.57
2022-10-11T04:00:28.382Z,13.48
2022-10-11T04:04:30.072Z,15.75
2022-10-11T04:08:31.923Z,14.85
2022-10-11T04:12:33.901Z,14.68
2022-10-11T04:16:38.629Z,15.02
2022-10-11T04:20:40.320Z,15.55
2022-10-11T04:24:42.149Z,16.35
2022-10-11T04:28:43.877Z,15.73
2022-10-11T04:32:45.779Z,15.35
2022-10-11T04:36:49.894Z,15.65
2022-10-11T04:40:52.092Z,15.32
2022-10-11T04:45:19.537Z,15.05
2022-10-11T04:49:21.947Z,16.15
2022-10-11T04:53:23.691Z,15.73
2022-10-11T04:57:25.487Z,16.58
2022-10-11T05:01:27.196Z,16.15
2022-10-11T05:05:29.066Z,16.27
2022-10-11T05:09:30.725Z,14.82
2022-10-11T05:13:34.339Z,15.52
2022-10-11T05:17:36.053Z,17.10
2022-10-11T05:21:37.937Z,16.15
2022-10-11T05:25:40.093Z,14.80
2022-10-11T05:29:41.963Z,16.63
2022-10-11T05:33:44.017Z,17.80
2022-10-11T05:37:45.856Z,15.43
2022-10-11T05:41:47.566Z,14.80
2022-10-11T05:45:49.401Z,16.70
2022-10-11T05:49:51.033Z,18.40
2022-10-11T05:53:52.953Z,15.65
2022-10-11T05:57:56.104Z,18.65
2022-10-11T06:01:57.912Z,19.60
2022-10-11T06:06:02.730Z,18.83
2022-10-11T06:10:05.909Z,19.67
2022-10-11T06:14:08.599Z,20.35
2022-10-11T06:18:10.519Z,20.20
2022-10-11T06:22:12.538Z,20.73
2022-10-11T06:26:14.373Z,23.23
2022-10-11T06:30:16.198Z,23.35
2022-10-11T06:34:18.000Z,23.65
2022-10-11T06:38:19.672Z,21.75
2022-10-11T06:42:21.586Z,24.40
2022-10-11T06:46:26.654Z,23.02
2022-10-11T06:50:54.310Z,24.13
2022-10-11T06:54:54.375Z,22.00
2022-10-11T06:58:57.875Z,23.08
2022-10-11T07:03:00.406Z,21.90
2022-10-11T07:07:03.916Z,23.67
2022-10-11T07:11:07.463Z,21.38
2022-10-11T07:15:11.670Z,20.90
2022-10-11T07:19:13.492Z,22.20
2022-10-11T07:23:15.794Z,20.73
2022-10-11T07:27:17.649Z,21.70
2022-10-11T07:31:24.917Z,20.70
2022-10-11T07:35:31.523Z,20.38
2022-10-11T07:39:34.621Z,21.67
2022-10-11T07:43:37.912Z,21.98
2022-10-11T07:47:40.060Z,20.13
2022-10-11T07:51:41.908Z,22.05
2022-10-11T07:55:43.799Z,18.85
2022-10-11T07:59:50.002Z,19.85
2022-10-11T08:03:52.360Z,18.13
2022-10-11T08:07:54.654Z,17.75
2022-10-11T08:11:56.624Z,17.23
2022-10-11T08:15:58.614Z,18.38
2022-10-11T08:20:00.618Z,16.63
2022-10-11T08:24:04.520Z,15.30
2022-10-11T08:28:07.312Z,14.82
2022-10-11T08:32:11.905Z,15.85
2022-10-11T08:36:13.757Z,15.25
2022-10-11T08:40:19.027Z,14.30
2022-10-11T08:45:09.501Z,13.05
2022-10-11T08:49:07.456Z,13.85
2022-10-11T08:53:23.872Z,13.65
2022-10-11T08:57:29.323Z,13.50
2022-10-11T09:01:31.879Z,13.82
2022-10-11T09:05:49.935Z,13.80
2022-10-11T09:10:26.526Z,14.03
2022-10-11T09:14:33.922Z,14.77
2022-10-11T09:19:35.111Z,13.93
2022-10-11T09:24:04.719Z,13.85
2022-10-11T09:28:37.001Z,13.93
2022-10-11T09:32:42.391Z,12.98
2022-10-11T09:36:54.980Z,10.98
2022-10-11T09:41:11.694Z,12.27
2022-10-11T09:45:18.423Z,10.52
2022-10-11T09:49:25.513Z,10.02
2022-10-11T09:53:54.087Z,8.85
2022-10-11T09:57:55.935Z,10.35
2022-10-11T10:02:12.647Z,9.55
2022-10-11T10:06:40.505Z,8.63
2022-10-11T10:11:09.636Z,8.20
2022-10-11T10:15:19.551Z,8.05
2022-10-11T10:19:21.968Z,8.88
2022-10-11T10:23:27.985Z,7.20
2022-10-11T10:27:30.605Z,6.10
2022-10-11T10:32:13.810Z,6.10
2022-10-11T10:36:21.921Z,5.72
2022-10-11T10:40:37.093Z,5.40
2022-10-11T10:44:38.994Z,5.30
2022-10-11T10:49:41.091Z,4.93
2022-10-11T10:53:28.057Z,3.85
2022-10-11T10:57:48.692Z,4.10
2022-10-11T11:02:16.047Z,3.35
2022-10-11T11:06:50.075Z,4.10
2022-10-11T11:11:16.782Z,4.28
2022-10-11T11:15:50.872Z,3.22
2022-10-11T11:20:08.801Z,3.30
2022-10-11T11:24:13.418Z,3.30
2022-10-11T11:28:27.920Z,3.20
2022-10-11T11:33:06.759Z,3.92
2022-10-11T11:37:28.717Z,3.67
2022-10-11T11:41:40.831Z,2.40
2022-10-11T11:45:49.909Z,3.08
2022-10-11T11:50:04.014Z,2.83
2022-10-11T11:54:40.533Z,2.15
2022-10-11T11:59:03.268Z,2.60
2022-10-11T12:03:16.275Z,2.83
2022-10-11T12:07:23.687Z,2.78
2022-10-11T12:11:35.393Z,2.53
2022-10-11T12:15:37.612Z,3.22
2022-10-11T12:19:42.635Z,2.25
2022-10-11T12:24:22.894Z,2.55
2022-10-11T12:29:12.796Z,2.80
2022-10-11T12:33:30.870Z,2.57
2022-10-11T12:38:38.492Z,2.28
2022-10-11T12:43:10.190Z,2.95
2022-10-11T12:47:42.934Z,3.20
2022-10-11T12:52:14.249Z,2.85
2022-10-11T12:56:29.380Z,2.45
2022-10-11T13:00:40.336Z,2.40
2022-10-11T13:04:42.270Z,2.65
2022-10-11T13:08:50.671Z,2.60
2022-10-11T13:12:54.957Z,2.45
2022-10-11T13:17:03.450Z,2.92
2022-10-11T13:21:19.087Z,2.78
2022-10-11T13:25:36.246Z,2.25
2022-10-11T13:29:45.507Z,2.05
2022-10-11T13:33:48.146Z,4.20
2022-10-11T13:37:49.958Z,2.65
2022-10-11T13:41:52.174Z,2.33
2022-10-11T13:45:55.824Z,2.90
2022-10-11T13:50:02.175Z,1.77
2022-10-11T13:54:09.458Z,3.50
2022-10-11T13:58:19.985Z,1.75
2022-10-11T14:02:23.991Z,2.22
2022-10-11T14:06:40.578Z,10.10
2022-10-11T14:10:46.722Z,2.47
2022-10-11T14:14:48.924Z,2.35
2022-10-11T14:19:20.053Z,2.67
2022-10-11T14:23:21.912Z,2.58
2022-10-11T14:27:28.110Z,2.50
2022-10-11T14:31:30.484Z,3.33
2022-10-11T14:35:32.906Z,2.10
2022-10-11T14:39:34.991Z,2.03
2022-10-11T14:43:36.723Z,2.50
2022-10-11T14:47:42.960Z,2.83
2022-10-11T14:51:48.014Z,3.70
2022-10-11T14:55:50.029Z,5.15
2022-10-11T14:59:52.030Z,3.08
2022-10-11T15:03:53.797Z,8.57
2022-10-11T15:07:55.527Z,9.10
2022-10-11T15:11:58.095Z,6.80
2022-10-11T15:16:00.007Z,4.00
2022-10-11T15:20:02.103Z,4.18
2022-10-11T15:24:04.087Z,6.07
2022-10-11T15:28:07.044Z,8.38
2022-10-11T15:32:09.155Z,15.30
2022-10-11T15:36:14.195Z,16.23
2022-10-11T15:40:40.794Z,22.88
2022-10-11T15:44:42.605Z,17.38
2022-10-11T15:48:45.439Z,23.42
2022-10-11T15:52:47.464Z,23.60
2022-10-11T15:56:49.446Z,12.32
2022-10-11T16:00:54.179Z,36.67
2022-10-11T16:04:55.956Z,17.08
2022-10-11T16:08:57.885Z,15.50
2022-10-11T16:13:00.084Z,39.83
2022-10-11T16:17:04.048Z,76.30
2022-10-11T16:21:08.929Z,68.38
2022-10-11T16:25:11.241Z,52.17
2022-10-11T16:29:13.033Z,59.20
2022-10-11T16:33:14.942Z,39.80
2022-10-11T16:37:17.101Z,29.33
2022-10-11T16:41:18.991Z,20.05
2022-10-11T16:45:21.016Z,32.45
2022-10-11T16:49:26.478Z,24.05
2022-10-11T16:53:28.198Z,33.08
2022-10-11T16:57:54.981Z,31.40
2022-10-11T17:01:57.955Z,40.40
2022-10-11T17:05:59.594Z,24.60
2022-10-11T17:10:01.789Z,24.67
2022-10-11T17:14:05.161Z,21.02
2022-10-11T17:18:07.113Z,11.27
2022-10-11T17:22:13.225Z,7.72
2022-10-11T17:26:20.047Z,9.88
2022-10-11T17:30:22.795Z,6.45
2022-10-11T17:34:25.086Z,6.07
2022-10-11T17:38:27.715Z,5.72
2022-10-11T17:42:29.675Z,8.80
2022-10-11T17:46:34.301Z,12.52
2022-10-11T17:50:40.382Z,20.33
2022-10-11T17:54:42.084Z,13.20
2022-10-11T17:58:45.590Z,20.13
2022-10-11T18:02:47.401Z,22.08
2022-10-11T18:06:49.747Z,25.70
2022-10-11T18:10:51.440Z,24.75
2022-10-11T18:14:53.341Z,27.00
2022-10-11T18:18:57.308Z,37.65
2022-10-11T18:23:00.081Z,28.95
2022-10-11T18:27:02.141Z,25.40
2022-10-11T18:31:12.500Z,20.35
2022-10-11T18:35:15.272Z,17.73
2022-10-11T18:39:17.245Z,14.07
2022-10-11T18:43:18.859Z,10.75
2022-10-11T18:47:20.808Z,11.77
2022-10-11T18:51:24.728Z,13.25
2022-10-11T18:55:26.663Z,18.90
2022-10-11T18:59:28.355Z,28.58
2022-10-11T19:03:34.975Z,33.95
2022-10-11T19:07:37.521Z,37.05
2022-10-11T19:11:40.308Z,38.92
2022-10-11T19:15:41.933Z,33.55
2022-10-11T19:19:43.868Z,32.75
2022-10-11T19:23:47.043Z,32.72
2022-10-11T19:27:48.907Z,31.17
2022-10-11T19:31:55.774Z,32.03
2022-10-11T19:35:59.453Z,34.20
2022-10-11T19:40:01.320Z,35.78
2022-10-11T19:44:03.490Z,37.47
2022-10-11T19:48:05.281Z,42.28
2022-10-11T19:52:09.384Z,40.47
2022-10-11T19:56:14.609Z,37.90
2022-10-11T20:00:17.033Z,34.67
2022-10-11T20:04:39.943Z,34.00
2022-10-11T20:08:41.012Z,30.25
2022-10-11T20:12:45.940Z,31.42
2022-10-11T20:16:50.161Z,32.55
2022-10-11T20:20:53.639Z,36.08
2022-10-11T20:24:55.910Z,38.83
2022-10-11T20:28:58.030Z,44.22
2022-10-11T20:33:00.073Z,52.53
2022-10-11T20:37:01.957Z,55.75
2022-10-11T20:41:16.050Z,59.67
2022-10-11T20:45:17.653Z,67.30
2022-10-11T20:49:19.984Z,66.28
2022-10-11T20:53:22.075Z,59.30
2022-10-11T20:57:23.942Z,50.05
2022-10-11T21:01:28.957Z,49.22
2022-10-11T21:05:30.975Z,52.72
2022-10-11T21:09:32.601Z,43.60
2022-10-11T21:13:34.872Z,43.72
2022-10-11T21:17:36.528Z,45.58
2022-10-11T21:21:38.471Z,49.28
2022-10-11T21:25:40.691Z,55.78
2022-10-11T21:29:42.552Z,69.47
2022-10-11T21:33:44.912Z,70.05
2022-10-11T21:37:47.023Z,80.68
2022-10-11T21:41:48.670Z,81.78
2022-10-11T21:45:50.833Z,73.15
2022-10-11T21:49:52.529Z,67.03
2022-10-11T21:53:56.146Z,65.97
2022-10-11T21:57:57.878Z,56.67
2022-10-11T22:02:01.980Z,58.97
2022-10-11T22:06:04.383Z,64.72
2022-10-11T22:10:06.409Z,73.05
2022-10-11T22:14:08.301Z,79.28
2022-10-11T22:18:10.104Z,92.47
2022-10-11T22:22:11.915Z,74.68
2022-10-11T22:26:16.621Z,71.60
2022-10-11T22:30:18.347Z,73.18
2022-10-11T22:34:20.225Z,72.13
2022-10-11T22:38:22.215Z,67.40
2022-10-11T22:42:27.557Z,66.53
2022-10-11T22:46:30.142Z,62.90
2022-10-11T22:50:32.380Z,55.75
2022-10-11T22:54:33.972Z,48.30
2022-10-11T22:58:35.983Z,46.22
2022-10-11T23:02:37.690Z,47.72
2022-10-11T23:06:39.513Z,46.55
2022-10-11T23:10:41.119Z,42.92
2022-10-11T23:14:43.217Z,40.30
2022-10-11T23:18:44.950Z,38.25
2022-10-11T23:22:46.803Z,37.47
2022-10-11T23:26:48.450Z,37.88
2022-10-11T23:30:50.329Z,41.28
2022-10-11T23:34:51.937Z,39.95
2022-10-11T23:38:56.298Z,38.22
2022-10-11T23:42:57.925Z,37.17
2022-10-11T23:46:59.796Z,39.67
2022-10-11T23:51:01.604Z,37.97
2022-10-11T23:55:04.203Z,39.20
2022-10-11T23:59:05.912Z,35.05
